sensor_id;sensor_type;location;lat;lon;timestamp;P1;durP1;ratioP1;P2;durP2;ratioP2
42092;SDS011;28974;50.316;18.960;2022-08-19T00:05:23;25.00;;;15.32;;
42092;SDS011;28974;50.316;18.960;2022-08-19T00:17:23;22.35;;;15.25;;
42092;SDS011;28974;50.316;18.960;2022-08-19T00:29:24;28.48;;;15.50;;
42092;SDS011;28974;50.316;18.960;2022-08-19T00:41:25;30.57;;;16.53;;
42092;SDS011;28974;50.316;18.960;2022-08-19T00:53:26;31.98;;;17.92;;
42092;SDS011;28974;50.316;18.960;2022-08-19T01:05:27;31.55;;;16.92;;
42092;SDS011;28974;50.316;18.960;2022-08-19T01:17:29;32.78;;;18.05;;
42092;SDS011;28974;50.316;18.960;2022-08-19T01:29:29;29.27;;;17.17;;
42092;SDS011;28974;50.316;18.960;2022-08-19T01:41:30;28.98;;;18.55;;
42092;SDS011;28974;50.316;18.960;2022-08-19T01:53:30;29.30;;;19.10;;
42092;SDS011;28974;50.316;18.960;2022-08-19T02:05:30;31.95;;;18.13;;
42092;SDS011;28974;50.316;18.960;2022-08-19T02:17:31;32.22;;;18.85;;
42092;SDS011;28974;50.316;18.960;2022-08-19T02:29:32;31.27;;;17.70;;
42092;SDS011;28974;50.316;18.960;2022-08-19T02:41:32;31.23;;;19.42;;
42092;SDS011;28974;50.316;18.960;2022-08-19T02:53:34;31.10;;;18.95;;
42092;SDS011;28974;50.316;18.960;2022-08-19T03:05:35;31.85;;;18.48;;
42092;SDS011;28974;50.316;18.960;2022-08-19T03:17:35;34.17;;;18.58;;
42092;SDS011;28974;50.316;18.960;2022-08-19T03:29:36;34.20;;;20.73;;
42092;SDS011;28974;50.316;18.960;2022-08-19T03:41:38;31.90;;;18.25;;
42092;SDS011;28974;50.316;18.960;2022-08-19T03:53:39;29.02;;;18.30;;
42092;SDS011;28974;50.316;18.960;2022-08-19T04:05:39;29.55;;;17.77;;
42092;SDS011;28974;50.316;18.960;2022-08-19T04:17:39;25.75;;;17.10;;
42092;SDS011;28974;50.316;18.960;2022-08-19T04:29:40;32.83;;;18.00;;
42092;SDS011;28974;50.316;18.960;2022-08-19T04:41:41;28.70;;;17.73;;
42092;SDS011;28974;50.316;18.960;2022-08-19T04:54:03;31.27;;;18.05;;
42092;SDS011;28974;50.316;18.960;2022-08-19T05:06:04;24.10;;;16.52;;
42092;SDS011;28974;50.316;18.960;2022-08-19T05:18:05;37.38;;;18.60;;
42092;SDS011;28974;50.316;18.960;2022-08-19T05:30:25;27.55;;;17.30;;
42092;SDS011;28974;50.316;18.960;2022-08-19T05:42:25;37.13;;;17.30;;
42092;SDS011;28974;50.316;18.960;2022-08-19T05:54:26;30.00;;;15.45;;
42092;SDS011;28974;50.316;18.960;2022-08-19T06:06:27;28.52;;;17.08;;
42092;SDS011;28974;50.316;18.960;2022-08-19T06:18:27;29.05;;;16.92;;
42092;SDS011;28974;50.316;18.960;2022-08-19T06:30:28;29.23;;;17.15;;
42092;SDS011;28974;50.316;18.960;2022-08-19T06:42:28;27.23;;;15.25;;
42092;SDS011;28974;50.316;18.960;2022-08-19T06:54:30;24.00;;;15.93;;
42092;SDS011;28974;50.316;18.960;2022-08-19T07:06:30;27.03;;;14.10;;
42092;SDS011;28974;50.316;18.960;2022-08-19T07:18:31;36.35;;;15.13;;
42092;SDS011;28974;50.316;18.960;2022-08-19T07:30:31;28.27;;;15.10;;
42092;SDS011;28974;50.316;18.960;2022-08-19T07:42:31;23.70;;;13.10;;
42092;SDS011;28974;50.316;18.960;2022-08-19T07:54:33;37.85;;;15.27;;
42092;SDS011;28974;50.316;18.960;2022-08-19T08:06:36;30.20;;;14.85;;
42092;SDS011;28974;50.316;18.960;2022-08-19T08:18:55;27.20;;;12.95;;
42092;SDS011;28974;50.316;18.960;2022-08-19T08:30:56;34.33;;;14.43;;
42092;SDS011;28974;50.316;18.960;2022-08-19T08:55:36;31.15;;;11.93;;
42092;SDS011;28974;50.316;18.960;2022-08-19T09:31:49;29.38;;;12.68;;
42092;SDS011;28974;50.316;18.960;2022-08-19T09:43:51;23.23;;;11.32;;
42092;SDS011;28974;50.316;18.960;2022-08-19T09:55:54;22.08;;;11.02;;
42092;SDS011;28974;50.316;18.960;2022-08-19T10:07:54;21.98;;;11.13;;
42092;SDS011;28974;50.316;18.960;2022-08-19T10:19:55;21.77;;;11.38;;
42092;SDS011;28974;50.316;18.960;2022-08-19T10:31:55;16.38;;;10.02;;
42092;SDS011;28974;50.316;18.960;2022-08-19T10:43:58;25.63;;;9.63;;
42092;SDS011;28974;50.316;18.960;2022-08-19T10:55:59;17.67;;;9.05;;
42092;SDS011;28974;50.316;18.960;2022-08-19T11:08:18;19.50;;;9.63;;
42092;SDS011;28974;50.316;18.960;2022-08-19T11:20:18;16.80;;;9.45;;
42092;SDS011;28974;50.316;18.960;2022-08-19T11:32:18;16.20;;;8.90;;
42092;SDS011;28974;50.316;18.960;2022-08-19T11:44:19;20.80;;;8.35;;
42092;SDS011;28974;50.316;18.960;2022-08-19T11:56:20;29.50;;;10.57;;
42092;SDS011;28974;50.316;18.960;2022-08-19T12:08:20;23.92;;;8.93;;
42092;SDS011;28974;50.316;18.960;2022-08-19T12:20:22;22.13;;;8.20;;
42092;SDS011;28974;50.316;18.960;2022-08-19T12:32:23;14.15;;;8.07;;
42092;SDS011;28974;50.316;18.960;2022-08-19T12:44:24;16.95;;;8.60;;
42092;SDS011;28974;50.316;18.960;2022-08-19T12:56:25;21.40;;;8.40;;
42092;SDS011;28974;50.316;18.960;2022-08-19T13:08:25;18.08;;;8.07;;
42092;SDS011;28974;50.316;18.960;2022-08-19T13:20:25;16.92;;;7.90;;
42092;SDS011;28974;50.316;18.960;2022-08-19T13:32:26;20.73;;;8.70;;
42092;SDS011;28974;50.316;18.960;2022-08-19T13:44:45;20.80;;;7.18;;
42092;SDS011;28974;50.316;18.960;2022-08-19T13:56:47;21.45;;;8.32;;
42092;SDS011;28974;50.316;18.960;2022-08-19T14:08:48;20.83;;;7.78;;
42092;SDS011;28974;50.316;18.960;2022-08-19T14:20:48;20.67;;;7.85;;
42092;SDS011;28974;50.316;18.960;2022-08-19T14:32:49;20.00;;;7.60;;
42092;SDS011;28974;50.316;18.960;2022-08-19T14:44:49;21.15;;;8.60;;
42092;SDS011;28974;50.316;18.960;2022-08-19T14:56:49;30.55;;;7.57;;
42092;SDS011;28974;50.316;18.960;2022-08-19T15:08:50;15.85;;;7.22;;
42092;SDS011;28974;50.316;18.960;2022-08-19T15:20:51;27.63;;;7.25;;
42092;SDS011;28974;50.316;18.960;2022-08-19T15:32:52;22.73;;;7.57;;
42092;SDS011;28974;50.316;18.960;2022-08-19T15:44:52;21.63;;;7.57;;
42092;SDS011;28974;50.316;18.960;2022-08-19T15:56:52;31.00;;;8.63;;
42092;SDS011;28974;50.316;18.960;2022-08-19T16:09:12;33.80;;;8.32;;
42092;SDS011;28974;50.316;18.960;2022-08-19T16:21:13;27.20;;;9.88;;
42092;SDS011;28974;50.316;18.960;2022-08-19T16:33:16;28.65;;;10.48;;
42092;SDS011;28974;50.316;18.960;2022-08-19T16:45:16;24.15;;;10.30;;
42092;SDS011;28974;50.316;18.960;2022-08-19T16:57:18;23.42;;;10.55;;
42092;SDS011;28974;50.316;18.960;2022-08-19T17:09:19;31.95;;;9.80;;
42092;SDS011;28974;50.316;18.960;2022-08-19T17:21:20;32.97;;;11.80;;
42092;SDS011;28974;50.316;18.960;2022-08-19T17:33:21;49.15;;;15.32;;
42092;SDS011;28974;50.316;18.960;2022-08-19T17:45:22;36.33;;;9.43;;
42092;SDS011;28974;50.316;18.960;2022-08-19T17:57:23;42.60;;;12.10;;
42092;SDS011;28974;50.316;18.960;2022-08-19T18:09:27;31.50;;;10.48;;
42092;SDS011;28974;50.316;18.960;2022-08-19T18:21:28;22.10;;;8.30;;
42092;SDS011;28974;50.316;18.960;2022-08-19T18:33:30;17.83;;;8.00;;
42092;SDS011;28974;50.316;18.960;2022-08-19T18:45:32;20.38;;;9.68;;
42092;SDS011;28974;50.316;18.960;2022-08-19T18:57:51;42.63;;;13.00;;
42092;SDS011;28974;50.316;18.960;2022-08-19T19:09:52;21.33;;;9.70;;
42092;SDS011;28974;50.316;18.960;2022-08-19T19:21:52;28.45;;;11.30;;
42092;SDS011;28974;50.316;18.960;2022-08-19T19:33:53;36.28;;;12.48;;
42092;SDS011;28974;50.316;18.960;2022-08-19T19:45:54;32.70;;;12.65;;
42092;SDS011;28974;50.316;18.960;2022-08-19T19:57:54;36.45;;;13.38;;
42092;SDS011;28974;50.316;18.960;2022-08-19T20:09:56;53.33;;;25.98;;
42092;SDS011;28974;50.316;18.960;2022-08-19T20:21:57;39.80;;;20.10;;
42092;SDS011;28974;50.316;18.960;2022-08-19T20:33:57;38.95;;;18.88;;
42092;SDS011;28974;50.316;18.960;2022-08-19T20:45:57;40.63;;;20.77;;
42092;SDS011;28974;50.316;18.960;2022-08-19T20:57:57;38.45;;;21.17;;
42092;SDS011;28974;50.316;18.960;2022-08-19T21:09:58;40.63;;;19.63;;
42092;SDS011;28974;50.316;18.960;2022-08-19T21:21:59;41.35;;;19.50;;
42092;SDS011;28974;50.316;18.960;2022-08-19T21:33:59;51.60;;;22.48;;
42092;SDS011;28974;50.316;18.960;2022-08-19T21:46:00;54.40;;;26.63;;
42092;SDS011;28974;50.316;18.960;2022-08-19T21:58:00;57.78;;;26.77;;
42092;SDS011;28974;50.316;18.960;2022-08-19T22:10:01;44.17;;;20.00;;
42092;SDS011;28974;50.316;18.960;2022-08-19T22:22:02;31.13;;;17.65;;
42092;SDS011;28974;50.316;18.960;2022-08-19T22:34:03;33.42;;;15.75;;
42092;SDS011;28974;50.316;18.960;2022-08-19T22:46:04;34.93;;;18.20;;
42092;SDS011;28974;50.316;18.960;2022-08-19T22:58:05;39.25;;;20.60;;
42092;SDS011;28974;50.316;18.960;2022-08-19T23:10:06;43.25;;;22.00;;
42092;SDS011;28974;50.316;18.960;2022-08-19T23:22:08;40.55;;;23.95;;
42092;SDS011;28974;50.316;18.960;2022-08-19T23:34:09;43.88;;;22.70;;
42092;SDS011;28974;50.316;18.960;2022-08-19T23:46:12;43.47;;;22.60;;
42092;SDS011;28974;50.316;18.960;2022-08-19T23:58:13;52.97;;;25.30;;
